Sand Point Airport
PASD : now visible

Airfield :











YOU CAN JOIN US ON...

 
LOGIN :

Register | Disclaimer

   EN    FR    IT 

 









Legend :    VFR   Marginal VFR   IFR   Intensive IFR   Very Intensive IFR
Visi :
Ceiling :
>= 8 km
>= 3000ft
5 to 8 km
1000 to 3000 ft
1500m to 5 km
500 to 1000 ft
800 to 1500m
200 to 500 ft
< 800m
< 200 ft
Symbols :   Thunderstorms  Fog  Heavy snow  Heavy precipitations  Wind > 20 kt






- Airport Elevation : 21 ft
- IATA code : SDP


PASD - Sand Point

CURRENT METAR :
  • 270456Z AUTO 34024G31KT 8SM M08/M12 A2959 RMK AO2 PK WND 36038/0401 UPB13E21SNB04E13 SLP023 P0000 T10781117 FZRANO

EXPIRED METARs :
  • 270408Z AUTO 35025G38KT 9SM -SN M08/M12 A2958 RMK AO2 PK WND 36038/0401 SNB04 P0000 FZRANO
  • 270357Z 35025G33KT 10SM M08/M13 A2958 RMK AO2 PK WND 35030/0357 $
  • 270334Z 34025G32KT 10SM -SN FEW018 BKN031 BKN042 M08/M13 A2959 RMK AO2 PK WND 34036/0304 SNB09 P0000
  • 270256Z 35027G33KT 10SM FEW018 BKN031 BKN042 M08/M13 A2958 RMK AO2 PK WND 35037/0236 SNE52 SLP018 P0000 60000 T10781128 58001
  • 270252Z 35029G35KT 10SM FEW018 BKN031 BKN042 M08/M12 A2958 RMK AO2 PK WND 35037/0236 SNE52 P0000

TAF PASD
Valid from the 27 at 05:00 until the 28 at 00:00 UTC


270445Z 2705/2724 34028G38KT 6SM -SHSN BLSN SCT015 OVC025
FM270900 34020G30KT 3SM -SHSN BLSN BKN030
FM271400 34025G32KT 1SM -SHSN BLSN BKN030 AMD NOT SKED



MET'MAP, your aeronautical weather chart ! - Copyright ORBIFLY December 2007 - Disclaimer

ORBIFLY MET'MAP TEAM :

Programming & Development : Alexandra Zaïnal
Concept & original design : Baudouin d'Aumeries
Assistance for programming : Marc-Olivier Méhu
Technical & hardware support : Manuel Goepfert

Contact : metmap@orbifly.com




SOURCES & CREDITS :

   NOAA       Earth
Advisory